Beloit, Kansas
Current Conditions -  °F | °C
As of 7:14 AM on Friday 24 Oct 2014 (Local Time) from KCNK Reporting Station
Haze Haze  
Wind Chill: 57°   Ceiling: Unl
Heat Index: 57°   Visibility: 1.7mi
Dew Point: 57°   Wind: 9mph
Humidity: 100%   Direction: 210°SSW
Pressure: 29.99"   Gusts: NA
Location:  39.46°N, 98.11°W
Report Text: KCNK 241214Z AUTO 21008KT 1 3/4SM BR FEW002 14/14 A2999 RMK AO2 T01390139
Loading
Personal Weather Stations






























Interactive Weather Map
Tropical Storm Tracking
New forecast layout! Learn more

10-Day Weather Forecast

Advertisements
Track Severe Weather on mobile